createdAt,value
2022-09-25T00:00:33.351Z,269.91
2022-09-25T00:01:29.201Z,271.47
2022-09-25T00:02:24.516Z,271.92
2022-09-25T00:03:20.448Z,272.37
2022-09-25T00:04:15.527Z,273.51
2022-09-25T00:05:10.784Z,271.02
2022-09-25T00:06:06.590Z,269.69
2022-09-25T00:07:01.809Z,268.80
2022-09-25T00:07:57.150Z,269.69
2022-09-25T00:08:52.251Z,270.13
2022-09-25T00:09:48.842Z,273.28
2022-09-25T00:10:44.198Z,270.35
2022-09-25T00:11:39.466Z,269.24
2022-09-25T00:12:35.235Z,270.13
2022-09-25T00:13:30.498Z,271.47
2022-09-25T00:14:25.727Z,273.28
2022-09-25T00:15:22.072Z,275.58
2022-09-25T00:16:17.364Z,276.04
2022-09-25T00:17:13.190Z,275.58
2022-09-25T00:18:08.390Z,275.35
2022-09-25T00:19:03.640Z,271.02
2022-09-25T00:19:59.476Z,267.71
2022-09-25T00:20:54.704Z,269.24
2022-09-25T00:21:50.620Z,268.36
2022-09-25T00:22:45.741Z,271.02
2022-09-25T00:23:40.999Z,269.69
2022-09-25T00:24:36.825Z,267.93
2022-09-25T00:25:32.044Z,269.02
2022-09-25T00:26:27.252Z,267.27
2022-09-25T00:27:22.483Z,269.24
2022-09-25T00:28:18.386Z,269.91
2022-09-25T00:29:13.139Z,272.37
2022-09-25T00:30:08.397Z,273.74
2022-09-25T00:31:03.688Z,276.74
2022-09-25T00:31:59.353Z,276.51
2022-09-25T00:32:54.741Z,280.05
2022-09-25T00:33:50.098Z,282.21
2022-09-25T00:34:45.211Z,285.16
2022-09-25T00:35:40.322Z,279.57
2022-09-25T00:36:35.322Z,283.19
2022-09-25T00:37:30.419Z,282.94
2022-09-25T00:38:25.537Z,284.66
2022-09-25T00:39:20.536Z,278.15
2022-09-25T00:40:15.761Z,277.91
2022-09-25T00:41:10.632Z,280.29
2022-09-25T00:42:05.713Z,283.19
2022-09-25T00:43:00.814Z,279.81
2022-09-25T00:43:55.795Z,281.49
2022-09-25T00:44:51.042Z,282.46
2022-09-25T00:45:46.205Z,283.92
2022-09-25T00:46:41.243Z,279.81
2022-09-25T00:47:36.192Z,281.73
2022-09-25T00:48:31.281Z,283.92
2022-09-25T00:49:26.372Z,283.92
2022-09-25T00:50:21.478Z,283.43
2022-09-25T00:51:16.555Z,286.65
2022-09-25T00:52:11.657Z,286.15
2022-09-25T00:53:06.645Z,288.42
2022-09-25T00:54:01.726Z,291.75
2022-09-25T00:54:56.792Z,292.27
2022-09-25T00:55:51.903Z,291.75
2022-09-25T00:56:47.151Z,290.71
2022-09-25T00:57:42.372Z,289.69
2022-09-25T00:58:37.596Z,293.84
2022-09-25T00:59:32.942Z,294.10
2022-09-25T01:00:28.184Z,293.31
2022-09-25T01:01:23.449Z,292.53
2022-09-25T01:02:18.779Z,293.31
2022-09-25T01:03:13.909Z,294.37
2022-09-25T01:04:09.306Z,295.16
2022-09-25T01:05:05.174Z,296.23
2022-09-25T01:06:00.370Z,301.12
2022-09-25T01:06:55.599Z,304.19
2022-09-25T01:07:50.817Z,303.35
2022-09-25T01:08:46.035Z,302.23
2022-09-25T01:11:08.850Z,265.11
2022-09-25T01:12:05.684Z,271.02
2022-09-25T01:13:02.037Z,275.35
2022-09-25T01:13:54.602Z,279.33
2022-09-25T01:14:49.779Z,279.09
2022-09-25T01:15:44.989Z,280.77
2022-09-25T01:16:40.279Z,283.43
2022-09-25T01:17:35.493Z,281.73
2022-09-25T01:18:30.714Z,282.46
2022-09-25T01:19:25.929Z,282.94
2022-09-25T01:20:21.254Z,284.42
2022-09-25T01:21:16.747Z,285.16
2022-09-25T01:22:11.874Z,286.65
2022-09-25T01:23:07.084Z,285.90
2022-09-25T01:24:02.303Z,285.65
2022-09-25T01:24:57.637Z,286.65
2022-09-25T01:25:52.845Z,281.25
2022-09-25T01:26:48.083Z,274.65
2022-09-25T01:27:43.281Z,273.28
2022-09-25T01:28:38.623Z,274.20
2022-09-25T01:29:33.840Z,275.11
2022-09-25T01:30:29.246Z,274.42
2022-09-25T01:31:24.676Z,273.51
2022-09-25T01:32:19.787Z,276.51
2022-09-25T01:33:15.017Z,278.62
2022-09-25T01:34:10.358Z,279.57
2022-09-25T01:35:05.554Z,277.21
2022-09-25T01:36:00.757Z,272.37
2022-09-25T01:36:55.984Z,270.58
2022-09-25T01:37:51.338Z,271.02
2022-09-25T01:38:46.565Z,271.25
2022-09-25T01:39:41.802Z,272.83
2022-09-25T01:40:37.065Z,275.11
2022-09-25T01:41:32.396Z,272.60
2022-09-25T01:42:27.516Z,270.35
2022-09-25T01:43:22.720Z,271.25
2022-09-25T01:44:17.940Z,272.60
2022-09-25T01:45:13.155Z,273.74
2022-09-25T01:46:08.395Z,274.20
2022-09-25T01:47:03.651Z,276.74
2022-09-25T01:47:58.995Z,278.62
2022-09-25T01:48:54.205Z,283.68
2022-09-25T01:49:49.414Z,290.46
2022-09-25T01:50:44.764Z,290.71
2022-09-25T01:51:40.097Z,291.75
2022-09-25T01:52:35.219Z,292.27
2022-09-25T01:53:30.423Z,292.01
2022-09-25T01:54:25.642Z,293.05
2022-09-25T01:55:20.851Z,290.71
2022-09-25T01:56:16.050Z,289.18
2022-09-25T01:57:11.331Z,288.67
2022-09-25T01:58:06.539Z,290.20
2022-09-25T01:59:01.734Z,290.46
2022-09-25T01:59:56.964Z,291.75
2022-09-25T02:00:52.179Z,292.79
2022-09-25T02:01:47.585Z,295.43
2022-09-25T02:02:42.749Z,297.57
2022-09-25T02:03:37.954Z,296.23
2022-09-25T02:04:33.178Z,299.74
2022-09-25T02:05:28.525Z,300.57
2022-09-25T02:06:23.723Z,302.79
2022-09-25T02:07:19.099Z,306.46
2022-09-25T02:08:14.162Z,311.41
2022-09-25T02:09:09.487Z,312.60
2022-09-25T02:10:04.709Z,318.98
2022-09-25T02:10:59.915Z,320.22
2022-09-25T02:11:55.258Z,320.22
2022-09-25T02:12:50.384Z,325.62
2022-09-25T02:13:45.587Z,328.23
2022-09-25T02:14:40.816Z,325.62
2022-09-25T02:15:36.021Z,325.95
2022-09-25T02:16:31.399Z,326.92
2022-09-25T02:17:26.665Z,328.56
2022-09-25T02:18:21.871Z,327.58
2022-09-25T02:19:17.204Z,328.56
2022-09-25T02:20:12.443Z,324.02
2022-09-25T02:21:07.659Z,322.11
2022-09-25T02:22:03.037Z,320.22
2022-09-25T02:22:58.218Z,314.69
2022-09-25T02:23:53.430Z,312.00
2022-09-25T02:24:48.659Z,307.04
2022-09-25T02:25:43.861Z,302.79
2022-09-25T02:26:39.072Z,302.51
2022-09-25T02:27:34.324Z,302.51
2022-09-25T02:28:29.531Z,303.35
2022-09-25T02:29:24.729Z,301.40
2022-09-25T02:30:20.100Z,306.75
2022-09-25T02:31:15.266Z,311.11
2022-09-25T02:32:10.891Z,312.30
2022-09-25T02:33:05.699Z,316.82
2022-09-25T02:34:00.901Z,319.29
2022-09-25T02:34:56.135Z,318.98
2022-09-25T02:35:51.349Z,317.43
2022-09-25T02:36:46.665Z,318.36
2022-09-25T02:37:42.613Z,319.60
2022-09-25T02:38:38.072Z,316.52
2022-09-25T02:39:33.414Z,316.52
2022-09-25T02:40:28.690Z,318.36
2022-09-25T02:41:23.897Z,320.54
2022-09-25T02:42:19.262Z,322.74
2022-09-25T02:43:14.505Z,322.42
2022-09-25T02:44:09.756Z,323.70
2022-09-25T02:45:05.114Z,325.30
2022-09-25T02:46:00.258Z,324.02
2022-09-25T02:46:55.457Z,320.22
2022-09-25T02:47:50.730Z,318.67
2022-09-25T02:48:45.943Z,314.09
2022-09-25T02:49:41.280Z,312.89
2022-09-25T02:50:36.523Z,312.89
2022-09-25T02:51:31.851Z,309.64
2022-09-25T02:52:27.053Z,307.04
2022-09-25T02:53:22.302Z,305.89
2022-09-25T02:54:17.521Z,307.61
2022-09-25T02:55:12.874Z,303.07
2022-09-25T02:56:08.008Z,298.65
2022-09-25T02:57:04.410Z,295.96
2022-09-25T02:57:58.539Z,296.49
2022-09-25T02:58:53.743Z,295.69
2022-09-25T02:59:48.947Z,297.03
2022-09-25T03:00:44.199Z,295.69
2022-09-25T03:01:39.463Z,296.49
2022-09-25T03:02:34.804Z,295.96
2022-09-25T03:03:30.000Z,292.79
2022-09-25T03:04:25.410Z,290.97
2022-09-25T03:05:20.860Z,293.84
2022-09-25T03:06:16.126Z,293.31
2022-09-25T03:07:11.348Z,295.96
2022-09-25T03:08:06.598Z,299.20
2022-09-25T03:09:02.510Z,300.02
2022-09-25T03:09:57.716Z,301.95
2022-09-25T03:10:52.966Z,304.76
2022-09-25T03:11:48.326Z,312.60
2022-09-25T03:12:43.666Z,315.30
2022-09-25T03:13:38.905Z,316.21
2022-09-25T03:14:34.156Z,318.36
2022-09-25T03:15:29.383Z,321.79
2022-09-25T03:16:24.732Z,318.98
2022-09-25T03:17:19.811Z,315.60
2022-09-25T03:18:14.892Z,315.91
2022-09-25T03:19:09.991Z,317.43
2022-09-25T03:20:05.057Z,316.82
2022-09-25T03:21:00.195Z,320.22
2022-09-25T03:21:55.253Z,320.85
2022-09-25T03:22:50.353Z,325.95
2022-09-25T03:23:45.441Z,326.60
2022-09-25T03:24:40.508Z,329.55
2022-09-25T03:25:35.609Z,330.21
2022-09-25T03:26:30.697Z,333.91
2022-09-25T03:27:25.801Z,338.39
2022-09-25T03:28:20.897Z,340.14
2022-09-25T03:29:16.000Z,344.42
2022-09-25T03:30:12.028Z,343.34
2022-09-25T03:31:07.211Z,340.14
2022-09-25T03:32:02.192Z,341.20
2022-09-25T03:32:57.306Z,339.44
2022-09-25T03:33:52.399Z,339.79
2022-09-25T03:34:47.469Z,338.73
2022-09-25T03:35:42.564Z,333.57
2022-09-25T03:36:37.634Z,331.88
2022-09-25T03:37:32.891Z,334.59
2022-09-25T03:38:27.815Z,332.22
2022-09-25T03:39:22.884Z,336.65
2022-09-25T03:40:18.043Z,338.73
2022-09-25T03:41:13.092Z,341.56
2022-09-25T03:42:08.118Z,342.98
2022-09-25T03:44:31.144Z,302.51
2022-09-25T03:45:26.245Z,310.52
2022-09-25T03:46:21.637Z,315.91
2022-09-25T03:47:16.942Z,323.70
2022-09-25T03:48:12.123Z,327.25
2022-09-25T03:49:07.453Z,331.88
2022-09-25T03:50:02.673Z,331.55
2022-09-25T03:50:57.878Z,331.88
2022-09-25T03:51:53.239Z,331.55
2022-09-25T03:52:48.463Z,335.27
2022-09-25T03:53:43.676Z,334.25
2022-09-25T03:54:39.001Z,333.91
2022-09-25T03:55:34.235Z,335.96
2022-09-25T03:56:29.577Z,332.22
2022-09-25T03:57:24.817Z,331.55
2022-09-25T03:58:19.987Z,334.93
2022-09-25T03:59:15.311Z,335.96
2022-09-25T04:00:10.542Z,334.25
2022-09-25T04:01:05.800Z,333.57
2022-09-25T04:02:01.174Z,332.89
2022-09-25T04:02:56.296Z,335.96
2022-09-25T04:03:51.497Z,337.00
2022-09-25T04:04:46.938Z,335.27
2022-09-25T04:05:42.021Z,333.91
2022-09-25T04:06:37.237Z,334.59
2022-09-25T04:07:32.448Z,335.62
2022-09-25T04:08:27.770Z,337.69
2022-09-25T04:09:23.120Z,338.39
2022-09-25T04:10:18.316Z,338.39
2022-09-25T04:11:13.643Z,340.85
2022-09-25T04:12:08.843Z,342.27
2022-09-25T04:13:04.071Z,343.70
2022-09-25T04:13:59.244Z,344.79
2022-09-25T04:14:54.695Z,345.88
2022-09-25T04:15:49.937Z,344.42
2022-09-25T04:16:45.164Z,346.24
2022-09-25T04:17:40.371Z,344.79
2022-09-25T04:18:35.690Z,343.34
2022-09-25T04:19:31.012Z,340.49
2022-09-25T04:20:26.241Z,334.59
2022-09-25T04:21:21.452Z,336.30
2022-09-25T04:22:16.649Z,334.59
2022-09-25T04:23:11.863Z,334.25
2022-09-25T04:24:07.085Z,333.91
2022-09-25T04:25:02.452Z,335.27
2022-09-25T04:25:57.550Z,335.96
2022-09-25T04:26:52.748Z,336.65
2022-09-25T04:27:47.949Z,338.73
2022-09-25T04:28:43.279Z,340.14
2022-09-25T04:29:38.496Z,345.15
2022-09-25T04:30:33.718Z,345.51
2022-09-25T04:31:28.966Z,350.31
2022-09-25T04:32:24.165Z,357.95
2022-09-25T04:33:19.357Z,359.52
2022-09-25T04:34:14.562Z,362.30
2022-09-25T04:35:10.014Z,361.10
2022-09-25T04:36:05.247Z,354.09
2022-09-25T04:37:00.417Z,351.06
2022-09-25T04:37:55.637Z,350.68
2022-09-25T04:38:50.949Z,349.56
2022-09-25T04:39:46.284Z,352.95
2022-09-25T04:40:41.593Z,354.47
2022-09-25T04:41:36.794Z,358.73
2022-09-25T04:42:31.987Z,364.31
2022-09-25T04:43:27.195Z,369.64
2022-09-25T04:44:22.384Z,371.32
2022-09-25T04:45:17.715Z,372.16
2022-09-25T04:46:18.338Z,372.16
2022-09-25T04:47:09.073Z,370.48
2022-09-25T04:48:03.361Z,367.58
2022-09-25T04:48:58.556Z,368.40
2022-09-25T04:49:53.734Z,369.64
2022-09-25T04:50:48.950Z,369.64
2022-09-25T04:51:44.161Z,367.58
2022-09-25T04:52:39.484Z,369.64
2022-09-25T04:53:34.567Z,368.40
2022-09-25T04:54:29.875Z,369.23
2022-09-25T04:55:25.134Z,367.99
2022-09-25T04:56:20.401Z,369.64
2022-09-25T04:57:23.441Z,367.99
2022-09-25T04:58:11.939Z,366.34
2022-09-25T04:59:06.234Z,366.75
2022-09-25T05:00:01.478Z,367.16
2022-09-25T05:00:56.768Z,365.93
2022-09-25T05:01:52.199Z,368.81
2022-09-25T05:02:47.642Z,367.99
2022-09-25T05:03:42.861Z,364.31
2022-09-25T05:04:37.959Z,359.13
2022-09-25T05:05:33.258Z,355.62
2022-09-25T05:06:28.547Z,354.85
2022-09-25T05:07:23.813Z,354.47
2022-09-25T05:08:19.104Z,356.01
2022-09-25T05:09:14.325Z,357.56
2022-09-25T05:10:09.575Z,357.56
2022-09-25T05:11:04.842Z,355.62
2022-09-25T05:12:00.123Z,359.13
2022-09-25T05:12:55.483Z,361.90
2022-09-25T05:13:50.641Z,361.10
2022-09-25T05:14:45.891Z,358.73
2022-09-25T05:15:41.190Z,364.31
2022-09-25T05:16:36.646Z,361.90
2022-09-25T05:17:31.820Z,363.91
2022-09-25T05:18:27.134Z,365.12
2022-09-25T05:19:22.432Z,362.70
2022-09-25T05:20:17.782Z,361.90
2022-09-25T05:21:13.104Z,358.73
2022-09-25T05:22:08.399Z,359.52
2022-09-25T05:23:03.873Z,357.95
2022-09-25T05:23:59.108Z,351.81
2022-09-25T05:24:58.805Z,350.68
2022-09-25T05:25:49.822Z,346.97
2022-09-25T05:26:45.180Z,346.61
2022-09-25T05:27:40.532Z,347.34
2022-09-25T05:28:35.912Z,348.82
2022-09-25T05:29:31.251Z,344.06
2022-09-25T05:30:26.627Z,346.97
2022-09-25T05:31:22.063Z,343.70
2022-09-25T05:32:17.424Z,345.51
2022-09-25T05:33:12.983Z,341.56
2022-09-25T05:34:08.223Z,342.63
2022-09-25T05:35:03.570Z,341.20
2022-09-25T05:35:58.964Z,340.85
2022-09-25T05:36:54.318Z,339.08
2022-09-25T05:37:49.685Z,337.69
2022-09-25T05:38:45.073Z,337.34
2022-09-25T05:39:40.433Z,339.08
2022-09-25T05:40:35.860Z,338.04
2022-09-25T05:41:31.113Z,335.96
2022-09-25T05:42:26.458Z,338.73
2022-09-25T05:43:21.966Z,342.98
2022-09-25T05:44:17.184Z,342.63
2022-09-25T05:45:12.557Z,346.97
2022-09-25T05:46:08.008Z,345.88
2022-09-25T05:47:03.390Z,344.42
2022-09-25T05:47:58.762Z,342.98
2022-09-25T05:48:54.144Z,341.56
2022-09-25T05:49:49.525Z,338.73
2022-09-25T05:50:44.904Z,337.69
2022-09-25T05:51:40.364Z,335.62
2022-09-25T05:52:35.764Z,323.38
2022-09-25T05:53:31.338Z,310.23
2022-09-25T05:54:26.642Z,314.39
2022-09-25T05:55:22.070Z,320.22
2022-09-25T05:56:17.482Z,327.90
2022-09-25T05:57:12.897Z,333.23
2022-09-25T05:58:08.323Z,339.08
2022-09-25T05:59:03.746Z,346.61
2022-09-25T05:59:59.285Z,352.19
2022-09-25T06:00:54.565Z,357.56
2022-09-25T06:01:50.211Z,361.10
2022-09-25T06:02:45.569Z,364.71
2022-09-25T06:03:41.044Z,367.16
2022-09-25T06:04:36.476Z,374.71
2022-09-25T06:05:31.889Z,373.01
2022-09-25T06:06:27.722Z,373.86
2022-09-25T06:07:23.093Z,373.86
2022-09-25T06:08:18.379Z,369.23
2022-09-25T06:09:13.805Z,365.93
2022-09-25T06:10:09.262Z,361.90
2022-09-25T06:11:04.688Z,355.62
2022-09-25T06:12:00.251Z,349.56
2022-09-25T06:12:55.560Z,341.91
2022-09-25T06:13:54.419Z,343.34
2022-09-25T06:14:46.284Z,341.56
2022-09-25T06:15:41.753Z,340.49
2022-09-25T06:16:37.126Z,342.98
2022-09-25T06:17:32.396Z,345.15
2022-09-25T06:18:27.765Z,348.82
2022-09-25T06:19:23.112Z,350.68
2022-09-25T06:20:18.500Z,353.33
2022-09-25T06:21:13.927Z,357.17
2022-09-25T06:22:09.490Z,358.73
2022-09-25T06:23:04.809Z,359.52
2022-09-25T06:24:00.227Z,362.30
2022-09-25T06:24:55.666Z,369.23
2022-09-25T06:25:51.084Z,372.58
2022-09-25T06:26:46.495Z,376.86
2022-09-25T06:27:41.945Z,379.96
2022-09-25T06:28:37.355Z,383.46
2022-09-25T06:29:32.778Z,379.10
2022-09-25T06:30:28.265Z,377.30
2022-09-25T06:31:23.750Z,374.71
2022-09-25T06:32:19.215Z,376.43
2022-09-25T06:33:14.246Z,376.86
2022-09-25T06:34:09.243Z,381.48
2022-09-25T06:35:04.253Z,372.58
2022-09-25T06:35:59.277Z,369.23
2022-09-25T06:36:54.308Z,372.16
2022-09-25T06:37:49.442Z,369.23
2022-09-25T06:38:44.501Z,365.53
2022-09-25T06:39:39.622Z,364.31
2022-09-25T06:40:34.712Z,369.64
2022-09-25T06:41:29.754Z,376.00
2022-09-25T06:42:24.863Z,385.68
2022-09-25T06:43:19.950Z,392.26
2022-09-25T06:44:15.016Z,395.04
2022-09-25T06:45:10.111Z,401.22
2022-09-25T06:46:05.300Z,403.90
2022-09-25T06:47:03.897Z,399.30
2022-09-25T06:47:59.251Z,395.28
2022-09-25T06:48:54.711Z,395.98
2022-09-25T06:49:50.209Z,389.73
2022-09-25T06:50:45.701Z,396.22
2022-09-25T06:51:41.427Z,400.74
2022-09-25T06:52:36.778Z,405.86
2022-09-25T06:53:32.247Z,414.95
2022-09-25T06:54:27.706Z,423.12
2022-09-25T06:55:23.194Z,428.83
2022-09-25T06:56:18.818Z,427.73
2022-09-25T06:57:14.291Z,429.38
2022-09-25T06:58:09.787Z,429.66
2022-09-25T06:59:05.205Z,426.91
2022-09-25T07:00:00.679Z,423.65
2022-09-25T07:00:55.783Z,418.86
2022-09-25T07:01:50.932Z,416.25
2022-09-25T07:02:46.092Z,411.62
2022-09-25T07:03:41.137Z,412.90
2022-09-25T07:04:36.090Z,408.60
2022-09-25T07:05:31.167Z,411.88
2022-09-25T07:06:26.221Z,409.85
2022-09-25T07:07:21.322Z,406.85
2022-09-25T07:08:16.379Z,404.39
2022-09-25T07:09:11.469Z,401.95
2022-09-25T07:10:08.731Z,383.90
2022-09-25T07:11:03.821Z,384.34
2022-09-25T07:11:58.891Z,390.19
2022-09-25T07:12:53.958Z,387.02
2022-09-25T07:13:49.556Z,374.28
2022-09-25T07:14:45.164Z,370.06
2022-09-25T07:15:40.685Z,367.16
2022-09-25T07:16:36.174Z,363.50
2022-09-25T07:17:31.633Z,367.16
2022-09-25T07:18:27.120Z,369.23
2022-09-25T07:19:25.715Z,374.28
2022-09-25T07:20:19.216Z,373.43
2022-09-25T07:21:13.650Z,374.28
2022-09-25T07:22:09.133Z,377.73
2022-09-25T07:23:04.757Z,366.75
2022-09-25T07:24:00.135Z,365.53
2022-09-25T07:24:55.599Z,361.90
2022-09-25T07:25:51.167Z,355.24
2022-09-25T07:26:46.144Z,350.68
2022-09-25T07:27:41.149Z,352.57
2022-09-25T07:28:36.288Z,349.93
2022-09-25T07:29:31.365Z,362.30
2022-09-25T07:30:26.397Z,366.75
2022-09-25T07:31:21.541Z,372.58
2022-09-25T07:32:16.592Z,376.43
2022-09-25T07:33:13.934Z,383.90
2022-09-25T07:34:09.230Z,378.17
2022-09-25T07:35:04.039Z,376.00
2022-09-25T07:35:59.141Z,391.56
2022-09-25T07:36:54.217Z,396.45
2022-09-25T07:37:49.284Z,404.63
2022-09-25T07:38:44.375Z,393.18
2022-09-25T07:39:39.441Z,395.04
2022-09-25T07:40:34.833Z,387.92
2022-09-25T07:41:30.350Z,391.33
2022-09-25T07:42:25.950Z,393.88
2022-09-25T07:43:21.449Z,387.92
2022-09-25T07:44:28.469Z,384.12
2022-09-25T07:45:13.369Z,375.14
2022-09-25T07:46:07.876Z,371.74
2022-09-25T07:47:03.472Z,370.48
2022-09-25T07:47:58.971Z,373.43
2022-09-25T07:48:54.454Z,375.57
2022-09-25T07:49:49.917Z,385.68
2022-09-25T07:50:45.419Z,387.92
2022-09-25T07:51:41.033Z,387.02
2022-09-25T07:52:36.468Z,387.69
2022-09-25T07:53:31.995Z,379.31
2022-09-25T07:54:27.665Z,373.86
2022-09-25T07:55:23.055Z,357.56
2022-09-25T07:56:21.833Z,340.14
2022-09-25T07:57:17.157Z,330.88
2022-09-25T07:58:12.663Z,328.23
2022-09-25T07:59:08.156Z,330.55
2022-09-25T08:00:03.628Z,331.21
2022-09-25T08:00:59.233Z,334.25
2022-09-25T08:01:54.671Z,332.55
2022-09-25T08:02:50.195Z,298.93
2022-09-25T08:03:45.640Z,273.05
2022-09-25T08:04:41.026Z,271.47
2022-09-25T08:05:36.685Z,266.19
2022-09-25T08:06:32.171Z,267.49
2022-09-25T08:07:27.713Z,268.80
2022-09-25T08:08:23.235Z,273.97
2022-09-25T08:09:18.750Z,283.43
2022-09-25T08:10:13.797Z,292.79
2022-09-25T08:11:08.814Z,306.75
2022-09-25T08:12:03.814Z,319.91
2022-09-25T08:12:58.837Z,335.96
2022-09-25T08:13:53.815Z,357.95
2022-09-25T08:14:48.808Z,386.79
2022-09-25T08:15:43.995Z,406.61
2022-09-25T08:16:39.021Z,414.95
2022-09-25T08:17:34.103Z,413.16
2022-09-25T08:18:29.172Z,407.60
2022-09-25T08:19:25.976Z,409.35
2022-09-25T08:20:21.470Z,409.85
2022-09-25T08:21:16.869Z,409.35
2022-09-25T08:22:12.398Z,400.02
2022-09-25T08:23:07.905Z,391.33
2022-09-25T08:24:03.381Z,376.86
2022-09-25T08:24:58.819Z,385.45
2022-09-25T08:25:54.410Z,392.26
2022-09-25T08:26:49.884Z,395.98
2022-09-25T08:27:45.275Z,396.92
2022-09-25T08:28:40.657Z,398.58
2022-09-25T08:29:36.193Z,383.68
2022-09-25T08:30:31.819Z,380.83
2022-09-25T08:31:27.424Z,377.30
2022-09-25T08:32:22.915Z,365.93
2022-09-25T08:33:17.793Z,365.12
2022-09-25T08:34:36.202Z,363.50
2022-09-25T08:35:08.980Z,356.78
2022-09-25T08:36:03.846Z,351.43
2022-09-25T08:36:59.433Z,336.30
2022-09-25T08:37:54.718Z,307.61
2022-09-25T08:38:50.552Z,263.20
2022-09-25T08:39:45.960Z,259.04
2022-09-25T08:40:46.284Z,260.69
2022-09-25T08:41:37.053Z,264.05
2022-09-25T08:42:32.802Z,269.24
2022-09-25T08:43:28.211Z,272.83
2022-09-25T08:44:24.041Z,279.09
2022-09-25T08:45:21.874Z,281.49
2022-09-25T08:46:14.804Z,279.57
2022-09-25T08:47:10.563Z,282.94
2022-09-25T08:48:06.030Z,282.21
2022-09-25T08:49:01.497Z,265.33
2022-09-25T08:49:57.827Z,262.36
2022-09-25T08:50:53.297Z,251.50
2022-09-25T08:51:49.196Z,240.97
2022-09-25T08:52:44.672Z,218.50
2022-09-25T08:53:40.135Z,204.48
2022-09-25T08:54:35.888Z,202.84
2022-09-25T08:55:31.366Z,213.80
2022-09-25T08:56:27.262Z,221.15
2022-09-25T08:57:22.637Z,222.50
2022-09-25T08:58:18.006Z,225.25
2022-09-25T08:59:13.921Z,232.27
2022-09-25T09:00:09.423Z,251.69
2022-09-25T09:01:04.986Z,268.80
2022-09-25T09:02:01.169Z,265.54
2022-09-25T09:02:56.662Z,268.80
2022-09-25T09:03:52.530Z,271.92
2022-09-25T09:04:48.041Z,277.21
2022-09-25T09:05:46.134Z,277.91
2022-09-25T09:06:39.217Z,276.51
2022-09-25T09:07:34.625Z,280.77
2022-09-25T09:08:30.542Z,280.29
2022-09-25T09:09:25.895Z,285.90
2022-09-25T09:10:21.391Z,290.20
2022-09-25T09:11:17.303Z,295.43
2022-09-25T09:12:12.646Z,304.19
2022-09-25T09:13:08.121Z,308.19
2022-09-25T09:14:04.495Z,307.90
2022-09-25T09:14:59.952Z,312.60
2022-09-25T09:15:55.903Z,323.38
2022-09-25T09:16:51.342Z,327.25
2022-09-25T09:17:46.834Z,339.08
2022-09-25T09:18:42.534Z,346.61
2022-09-25T09:19:37.987Z,346.97
2022-09-25T09:20:33.859Z,338.04
2022-09-25T09:21:29.247Z,335.96
2022-09-25T09:22:24.722Z,346.61
2022-09-25T09:23:20.536Z,349.93
2022-09-25T09:24:16.082Z,343.34
2022-09-25T09:25:11.640Z,334.59
2022-09-25T09:26:07.728Z,334.25
2022-09-25T09:27:03.221Z,341.56
2022-09-25T09:27:59.106Z,356.01
2022-09-25T09:28:54.618Z,359.52
2022-09-25T09:29:50.090Z,352.19
2022-09-25T09:30:45.946Z,293.58
2022-09-25T09:31:41.417Z,290.97
2022-09-25T09:32:37.223Z,288.92
2022-09-25T09:33:32.638Z,296.49
2022-09-25T09:34:46.444Z,306.46
2022-09-25T09:35:27.503Z,318.98
2022-09-25T09:36:20.382Z,324.98
2022-09-25T09:37:14.814Z,335.62
2022-09-25T09:38:10.189Z,365.12
2022-09-25T09:39:06.112Z,374.71
2022-09-25T09:40:01.595Z,366.34
2022-09-25T09:40:57.127Z,359.52
2022-09-25T09:41:52.786Z,356.78
2022-09-25T09:42:48.271Z,353.33
2022-09-25T09:43:44.162Z,355.24
2022-09-25T09:44:39.501Z,342.98
2022-09-25T09:45:34.958Z,332.89
2022-09-25T09:46:30.797Z,315.30
2022-09-25T09:47:26.247Z,299.20
2022-09-25T09:48:21.727Z,296.49
2022-09-25T09:49:18.077Z,304.47
2022-09-25T09:50:13.525Z,306.46
2022-09-25T09:51:09.402Z,309.94
2022-09-25T09:52:04.926Z,323.06
2022-09-25T09:53:00.436Z,351.81
2022-09-25T09:53:56.152Z,366.75
2022-09-25T09:54:51.639Z,282.94
2022-09-25T09:55:47.160Z,273.28
2022-09-25T09:56:42.688Z,287.40
2022-09-25T09:57:38.077Z,291.49
2022-09-25T09:58:33.170Z,293.84
2022-09-25T09:59:28.188Z,292.79
2022-09-25T10:00:23.239Z,291.23
2022-09-25T10:01:39.847Z,290.71
2022-09-25T10:02:14.524Z,300.57
2022-09-25T10:03:08.527Z,311.11
2022-09-25T10:04:03.579Z,313.79
2022-09-25T10:04:58.534Z,310.23
2022-09-25T10:05:53.607Z,314.39
2022-09-25T10:06:48.785Z,319.91
2022-09-25T10:07:44.289Z,322.11
2022-09-25T10:08:39.363Z,325.95
2022-09-25T10:09:34.426Z,322.74
2022-09-25T10:10:29.516Z,320.54
2022-09-25T10:11:24.702Z,314.69
2022-09-25T10:12:19.794Z,305.89
2022-09-25T10:13:17.156Z,294.37
2022-09-25T10:14:12.121Z,307.61
2022-09-25T10:15:07.104Z,313.49
2022-09-25T10:16:02.214Z,317.43
2022-09-25T10:16:57.162Z,327.90
2022-09-25T10:17:52.299Z,323.06
2022-09-25T10:18:47.411Z,328.23
2022-09-25T10:19:42.428Z,351.81
2022-09-25T10:20:37.521Z,384.79
2022-09-25T10:21:32.630Z,405.12
2022-09-25T10:22:28.029Z,413.41
2022-09-25T10:23:23.680Z,434.70
2022-09-25T10:24:19.473Z,449.65
2022-09-25T10:25:14.981Z,456.42
2022-09-25T10:26:10.443Z,451.48
2022-09-25T10:27:06.267Z,454.87
2022-09-25T10:28:01.714Z,438.71
2022-09-25T10:28:57.641Z,417.03
2022-09-25T10:29:53.029Z,416.25
2022-09-25T10:30:48.489Z,420.98
2022-09-25T10:31:44.274Z,421.78
2022-09-25T10:32:39.817Z,436.70
2022-09-25T10:33:35.334Z,453.63
2022-09-25T10:34:31.561Z,470.26
2022-09-25T10:35:27.077Z,482.51
2022-09-25T10:36:22.878Z,506.71
2022-09-25T10:37:18.410Z,526.31
2022-09-25T10:38:13.946Z,569.94
2022-09-25T10:39:42.330Z,610.09
2022-09-25T10:40:06.111Z,626.13
2022-09-25T10:41:00.845Z,599.67
2022-09-25T10:41:56.383Z,615.73
2022-09-25T10:42:51.926Z,650.57
2022-09-25T10:43:47.878Z,690.30
2022-09-25T10:44:43.187Z,668.84
2022-09-25T10:45:38.659Z,676.30
2022-09-25T10:46:35.117Z,683.23
2022-09-25T10:47:30.372Z,736.83
2022-09-25T10:48:26.249Z,742.58
2022-09-25T10:49:21.775Z,727.19
2022-09-25T10:50:17.252Z,696.79
2022-09-25T10:51:13.089Z,651.20
2022-09-25T10:52:08.583Z,609.54
2022-09-25T10:53:04.497Z,590.12
2022-09-25T10:53:59.825Z,601.84
2022-09-25T10:54:55.251Z,603.47
2022-09-25T10:55:50.993Z,596.45
2022-09-25T10:56:46.576Z,577.84
2022-09-25T10:57:41.953Z,588.04
2022-09-25T10:58:38.205Z,607.32
2022-09-25T10:59:33.770Z,614.59
2022-09-25T11:00:29.632Z,615.16
2022-09-25T11:01:25.192Z,611.21
2022-09-25T11:02:20.795Z,601.84
2022-09-25T11:03:17.488Z,582.39
2022-09-25T11:04:11.904Z,570.43
2022-09-25T11:05:07.803Z,562.25
2022-09-25T11:06:03.154Z,533.89
2022-09-25T11:06:58.582Z,488.17
2022-09-25T11:07:54.344Z,462.12
2022-09-25T11:08:49.749Z,446.04
2022-09-25T11:09:45.167Z,412.64
2022-09-25T11:10:41.449Z,79.90
2022-09-25T11:11:36.898Z,31.88
2022-09-25T11:12:32.787Z,22.65
2022-09-25T11:13:28.223Z,18.06
2022-09-25T11:14:23.668Z,16.40
2022-09-25T11:15:19.061Z,16.85
2022-09-25T11:16:14.854Z,16.17
2022-09-25T11:17:10.267Z,16.21
2022-09-25T11:18:05.668Z,17.00
2022-09-25T11:19:04.664Z,18.48
2022-09-25T11:19:56.776Z,17.40
2022-09-25T11:20:52.117Z,17.89
2022-09-25T11:21:48.441Z,18.83
2022-09-25T11:22:43.806Z,19.08
2022-09-25T11:23:39.601Z,18.62
2022-09-25T11:24:34.972Z,19.16
2022-09-25T11:25:30.314Z,18.61
2022-09-25T11:26:26.117Z,21.22
2022-09-25T11:27:21.484Z,24.28
2022-09-25T11:28:17.392Z,25.95
2022-09-25T11:29:12.720Z,32.47
2022-09-25T11:30:08.006Z,42.79
2022-09-25T11:31:03.847Z,53.27
2022-09-25T11:31:59.220Z,65.53
2022-09-25T11:32:54.625Z,76.04
2022-09-25T11:33:50.030Z,82.18
2022-09-25T11:34:45.402Z,86.17